Terminal Aerodrome Forecast
Issued by NWS Cleveland, OH

Home | Current Version | Previous Version | Text Only | Print | Product List | Glossary On
Versions: 1 2 3 4 5 6 7 8 9 10 11 12 13 14 15 16 17 18
383
FTUS41 KCLE 082224 AAB
TAFCAK
TAF AMD
KCAK 082224Z 0822/0918 24008KT 3SM -SN BR OVC008
      TEMPO 0822/0901 6SM -SN BKN035
     FM090100 27005KT 4SM -SN BR OVC025
      TEMPO 0902/0906 2SM -SHSN BR OVC008
     FM091500 28007KT 5SM -SHSN OVC012=

USA.gov is the U.S. government's official web portal to all federal, state and local government web resources and services.